createdAt,value
2019-04-21T00:00:45.589Z,40.57
2019-04-21T00:03:18.143Z,29.47
2019-04-21T00:06:03.289Z,28.10
2019-04-21T00:08:35.372Z,34.73
2019-04-21T00:11:11.034Z,36.10
2019-04-21T00:13:32.614Z,33.03
2019-04-21T00:15:58.974Z,43.90
2019-04-21T00:18:50.635Z,38.30
2019-04-21T00:21:26.912Z,42.53
2019-04-21T00:24:20.923Z,27.77
2019-04-21T00:27:18.640Z,31.47
2019-04-21T00:29:41.085Z,33.67
2019-04-21T00:32:03.355Z,29.40
2019-04-21T00:34:21.591Z,32.07
2019-04-21T00:37:03.060Z,33.33
2019-04-21T00:42:16.869Z,36.17
2019-04-21T00:44:39.857Z,38.70
2019-04-21T00:47:25.115Z,31.70
2019-04-21T00:49:56.651Z,38.10
2019-04-21T00:52:56.222Z,31.43
2019-04-21T00:55:35.489Z,21.17
2019-04-21T00:58:03.715Z,25.30
2019-04-21T01:00:32.411Z,28.83
2019-04-21T01:03:09.316Z,30.47
2019-04-21T01:05:42.774Z,35.40
2019-04-21T01:08:11.514Z,32.03
2019-04-21T01:10:35.851Z,27.57
2019-04-21T01:13:18.758Z,20.97
2019-04-21T01:15:48.959Z,20.13
2019-04-21T01:18:16.765Z,22.43
2019-04-21T01:20:29.526Z,21.77
2019-04-21T01:23:00.255Z,25.10
2019-04-21T01:25:40.439Z,30.37
2019-04-21T01:28:19.905Z,29.30
2019-04-21T01:33:32.508Z,40.20
2019-04-21T01:36:02.990Z,34.63
2019-04-21T01:38:34.237Z,23.03
2019-04-21T01:41:09.942Z,29.27
2019-04-21T01:43:38.413Z,26.90
2019-04-21T01:46:05.546Z,32.50
2019-04-21T01:48:37.490Z,31.10
2019-04-21T01:51:08.517Z,28.63
2019-04-21T01:54:03.509Z,19.93
2019-04-21T01:56:55.224Z,28.40
2019-04-21T01:59:31.990Z,31.43
2019-04-21T02:02:05.135Z,28.67
2019-04-21T02:04:41.844Z,26.47
2019-04-21T02:07:11.269Z,26.23
2019-04-21T02:09:44.587Z,24.97
2019-04-21T02:12:20.945Z,24.90
2019-04-21T02:15:00.776Z,23.47
2019-04-21T02:17:16.407Z,25.23
2019-04-21T02:19:45.830Z,28.17
2019-04-21T02:22:28.066Z,36.73
2019-04-21T02:25:03.063Z,32.23
2019-04-21T02:27:31.123Z,25.27
2019-04-21T02:29:59.799Z,19.23
2019-04-21T02:32:44.320Z,19.07
2019-04-21T02:37:55.467Z,30.77
2019-04-21T02:40:25.724Z,25.17
2019-04-21T02:42:56.011Z,19.33
2019-04-21T02:45:23.612Z,18.43
2019-04-21T02:48:06.309Z,16.83
2019-04-21T02:50:26.073Z,20.53
2019-04-21T03:03:32.031Z,24.07
2019-04-21T03:08:50.086Z,35.60
2019-04-21T03:11:12.288Z,37.23
2019-04-21T03:13:57.319Z,37.40
2019-04-21T03:18:56.874Z,37.13
2019-04-21T03:23:57.426Z,27.10
2019-04-21T03:26:40.340Z,19.30
2019-04-21T03:29:05.839Z,31.83
2019-04-21T03:39:10.304Z,40.23
2019-04-21T03:41:48.346Z,28.87
2019-04-21T03:44:16.647Z,37.37
2019-04-21T03:46:47.406Z,39.37
2019-04-21T03:51:54.960Z,29.47
2019-04-21T03:54:28.326Z,58.67
2019-04-21T03:57:11.421Z,48.50
2019-04-21T03:59:17.814Z,32.40
2019-04-21T04:02:24.425Z,27.13
2019-04-21T04:05:07.306Z,27.13
2019-04-21T04:07:59.059Z,28.60
2019-04-21T04:10:24.525Z,27.40
2019-04-21T04:12:52.667Z,25.43
2019-04-21T04:15:31.219Z,21.63
2019-04-21T04:17:54.680Z,28.73
2019-04-21T04:20:30.283Z,38.10
2019-04-21T04:23:02.794Z,27.57
2019-04-21T04:28:10.174Z,32.63
2019-04-21T04:30:38.225Z,31.77
2019-04-21T04:33:07.886Z,22.77
2019-04-21T04:35:52.408Z,34.73
2019-04-21T04:38:29.498Z,26.63
2019-04-21T04:43:48.019Z,22.97
2019-04-21T04:45:58.903Z,17.83
2019-04-21T04:48:37.519Z,37.37
2019-04-21T04:51:02.033Z,45.87
2019-04-21T04:53:48.779Z,45.10
2019-04-21T04:56:15.810Z,35.03
2019-04-21T04:59:10.790Z,32.40
2019-04-21T05:01:21.614Z,33.57
2019-04-21T05:03:49.010Z,23.37
2019-04-21T05:09:13.061Z,54.70
2019-04-21T05:19:14.635Z,19.90
2019-04-21T05:21:55.365Z,16.57
2019-04-21T05:24:13.633Z,19.30
2019-04-21T05:26:43.429Z,19.23
2019-04-21T05:29:09.053Z,19.83
2019-04-21T05:32:00.394Z,13.97
2019-04-21T05:34:31.866Z,18.27
2019-04-21T05:37:43.716Z,13.93
2019-04-21T05:40:10.594Z,16.27
2019-04-21T05:42:45.874Z,19.07
2019-04-21T05:45:22.541Z,24.17
2019-04-21T05:48:13.468Z,25.30
2019-04-21T05:50:30.587Z,24.30
2019-04-21T05:53:00.864Z,25.93
2019-04-21T05:55:46.098Z,22.67
2019-04-21T05:58:08.633Z,22.67
2019-04-21T06:03:23.159Z,22.07
2019-04-21T06:08:28.615Z,22.43
2019-04-21T06:13:40.715Z,23.23
2019-04-21T06:16:03.903Z,24.13
2019-04-21T06:18:44.502Z,22.93
2019-04-21T06:21:05.599Z,24.93
2019-04-21T06:23:35.974Z,22.57
2019-04-21T06:28:46.645Z,22.10
2019-04-21T06:31:59.282Z,21.50
2019-04-21T06:33:50.718Z,18.50
2019-04-21T06:36:47.073Z,19.23
2019-04-21T06:39:13.746Z,19.50
2019-04-21T06:41:34.371Z,21.87
2019-04-21T06:44:12.862Z,19.90
2019-04-21T06:46:50.323Z,21.60
2019-04-21T06:49:25.053Z,18.83
2019-04-21T06:51:43.595Z,14.57
2019-04-21T06:54:14.539Z,19.13
2019-04-21T06:56:51.582Z,14.83
2019-04-21T06:59:19.116Z,13.23
2019-04-21T07:01:59.838Z,12.37
2019-04-21T07:04:25.432Z,14.90
2019-04-21T07:09:31.105Z,14.43
2019-04-21T07:12:02.289Z,11.37
2019-04-21T07:14:50.034Z,12.13
2019-04-21T07:17:06.511Z,13.43
2019-04-21T07:19:42.649Z,18.73
2019-04-21T07:22:12.617Z,17.37
2019-04-21T07:24:46.262Z,15.23
2019-04-21T07:27:15.237Z,14.37
2019-04-21T07:29:47.558Z,14.20
2019-04-21T07:32:19.217Z,13.13
2019-04-21T07:34:52.270Z,13.57
2019-04-21T07:37:25.538Z,10.83
2019-04-21T07:39:53.130Z,11.17
2019-04-21T07:42:18.514Z,12.73
2019-04-21T07:44:53.463Z,12.90
2019-04-21T07:47:44.524Z,12.87
2019-04-21T07:50:20.564Z,11.53
2019-04-21T07:53:01.026Z,10.83
2019-04-21T07:57:54.856Z,11.13
2019-04-21T08:00:43.468Z,13.90
2019-04-21T08:03:19.492Z,13.37
2019-04-21T08:05:53.508Z,18.97
2019-04-21T08:08:01.583Z,13.77
2019-04-21T08:10:37.798Z,12.27
2019-04-21T08:13:18.829Z,13.20
2019-04-21T08:15:44.250Z,13.70
2019-04-21T08:18:20.351Z,13.23
2019-04-21T08:20:48.050Z,10.40
2019-04-21T08:23:20.314Z,17.70
2019-04-21T08:26:03.266Z,14.27
2019-04-21T08:28:27.646Z,13.37
2019-04-21T08:31:14.157Z,14.00
2019-04-21T08:33:50.326Z,11.70
2019-04-21T08:38:36.243Z,14.17
2019-04-21T08:41:08.198Z,19.03
2019-04-21T08:46:13.711Z,13.33
2019-04-21T08:48:45.094Z,16.47
2019-04-21T08:53:56.456Z,21.60
2019-04-21T08:56:37.190Z,14.37
2019-04-21T08:59:30.935Z,10.20
2019-04-21T09:02:18.245Z,9.23
2019-04-21T09:04:50.419Z,8.13
2019-04-21T09:09:54.690Z,10.03
2019-04-21T09:12:21.175Z,9.43
2019-04-21T09:14:55.344Z,11.00
2019-04-21T09:17:20.546Z,8.47
2019-04-21T09:20:08.700Z,14.97
2019-04-21T09:22:29.764Z,10.40
2019-04-21T09:25:01.618Z,12.87
2019-04-21T09:27:31.928Z,9.07
2019-04-21T09:29:53.961Z,8.57
2019-04-21T09:32:23.857Z,9.73
2019-04-21T09:34:52.751Z,14.30
2019-04-21T09:37:35.316Z,28.47
2019-04-21T09:39:57.419Z,10.93
2019-04-21T09:42:36.015Z,9.10
2019-04-21T09:45:03.154Z,8.40
2019-04-21T09:47:41.266Z,16.60
2019-04-21T09:50:05.213Z,12.50
2019-04-21T09:52:41.832Z,13.37
2019-04-21T09:55:13.927Z,6.70
2019-04-21T09:57:46.529Z,11.00
2019-04-21T10:00:18.747Z,11.93
2019-04-21T10:02:54.475Z,13.73
2019-04-21T10:05:16.903Z,7.77
2019-04-21T10:07:48.836Z,7.83
2019-04-21T10:10:19.338Z,7.80
2019-04-21T10:12:49.974Z,9.20
2019-04-21T10:15:23.271Z,7.63
2019-04-21T10:17:56.108Z,13.67
2019-04-21T10:20:26.583Z,16.03
2019-04-21T10:22:57.308Z,12.43
2019-04-21T10:25:28.360Z,10.80
2019-04-21T10:27:59.045Z,9.10
2019-04-21T10:30:30.685Z,9.93
2019-04-21T10:33:01.042Z,11.07
2019-04-21T10:35:31.360Z,8.80
2019-04-21T10:38:14.970Z,8.73
2019-04-21T10:40:35.543Z,8.03
2019-04-21T10:43:08.710Z,8.23
2019-04-21T10:45:39.172Z,7.60
2019-04-21T10:48:10.789Z,6.67
2019-04-21T10:50:41.374Z,8.20
2019-04-21T10:53:24.828Z,6.97
2019-04-21T10:56:09.398Z,7.03
2019-04-21T10:58:36.272Z,7.73
2019-04-21T11:01:14.630Z,6.57
2019-04-21T11:04:14.840Z,8.27
2019-04-21T11:06:39.031Z,8.43
2019-04-21T11:09:10.896Z,10.73
2019-04-21T11:11:44.625Z,7.73
2019-04-21T11:14:13.530Z,8.70
2019-04-21T11:16:46.270Z,7.60
2019-04-21T11:19:16.167Z,8.00
2019-04-21T11:21:47.067Z,7.53
2019-04-21T11:24:18.080Z,7.47
2019-04-21T11:26:49.687Z,7.37
2019-04-21T11:29:21.256Z,9.20
2019-04-21T11:31:51.735Z,9.30
2019-04-21T11:34:23.101Z,9.27
2019-04-21T11:36:54.387Z,7.20
2019-04-21T11:39:42.087Z,7.23
2019-04-21T11:42:11.925Z,10.17
2019-04-21T11:44:42.336Z,7.70
2019-04-21T11:47:22.716Z,7.70
2019-04-21T11:49:53.123Z,7.33
2019-04-21T11:52:23.464Z,6.53
2019-04-21T11:54:55.003Z,8.10
2019-04-21T11:57:28.718Z,8.63
2019-04-21T11:59:57.708Z,7.47
2019-04-21T12:02:28.107Z,8.67
2019-04-21T12:04:59.247Z,8.67
2019-04-21T12:07:29.630Z,7.27
2019-04-21T12:10:00.098Z,7.13
2019-04-21T12:12:30.463Z,8.40
2019-04-21T12:15:01.950Z,8.13
2019-04-21T12:17:32.370Z,8.33
2019-04-21T12:20:03.302Z,7.80
2019-04-21T12:22:34.450Z,8.40
2019-04-21T12:25:09.213Z,7.13
2019-04-21T12:27:40.090Z,6.97
2019-04-21T12:30:13.733Z,8.07
2019-04-21T12:33:12.125Z,7.73
2019-04-21T12:35:43.918Z,8.37
2019-04-21T12:38:14.323Z,7.33
2019-04-21T12:40:44.746Z,9.83
2019-04-21T12:43:15.038Z,11.47
2019-04-21T12:45:46.057Z,9.30
2019-04-21T12:48:17.919Z,6.87
2019-04-21T12:50:49.856Z,7.30
2019-04-21T12:53:21.434Z,7.90
2019-04-21T12:55:51.911Z,7.33
2019-04-21T12:58:23.523Z,8.13
2019-04-21T13:00:54.725Z,7.67
2019-04-21T13:03:26.803Z,7.40
2019-04-21T13:05:58.052Z,6.77
2019-04-21T13:08:30.266Z,7.03
2019-04-21T13:11:00.651Z,7.87
2019-04-21T13:13:32.106Z,7.70
2019-04-21T13:16:03.223Z,7.53
2019-04-21T13:18:33.773Z,8.80
2019-04-21T13:21:05.518Z,7.57
2019-04-21T13:23:36.974Z,7.07
2019-04-21T13:26:08.252Z,7.70
2019-04-21T13:28:40.428Z,8.60
2019-04-21T13:31:11.949Z,6.40
2019-04-21T13:33:42.395Z,6.70
2019-04-21T13:36:13.917Z,8.87
2019-04-21T13:39:33.358Z,7.77
2019-04-21T13:41:50.519Z,7.87
2019-04-21T13:44:13.250Z,10.90
2019-04-21T13:46:45.072Z,8.20
2019-04-21T13:49:17.057Z,6.57
2019-04-21T13:51:48.082Z,7.43
2019-04-21T13:54:19.772Z,7.00
2019-04-21T13:56:50.451Z,9.23
2019-04-21T13:59:22.110Z,10.10
2019-04-21T14:01:53.971Z,13.33
2019-04-21T14:04:25.280Z,11.93
2019-04-21T14:06:56.384Z,12.00
2019-04-21T14:09:37.922Z,7.80
2019-04-21T14:11:59.167Z,8.23
2019-04-21T14:14:30.404Z,8.13
2019-04-21T14:17:02.485Z,8.07
2019-04-21T14:19:33.193Z,7.87
2019-04-21T14:22:03.621Z,6.83
2019-04-21T14:24:35.027Z,7.73
2019-04-21T14:27:06.003Z,8.67
2019-04-21T14:29:37.680Z,7.57
2019-04-21T14:32:08.445Z,7.00
2019-04-21T14:34:39.817Z,7.00
2019-04-21T14:37:10.869Z,6.60
2019-04-21T14:39:50.248Z,7.97
2019-04-21T14:42:14.070Z,7.47
2019-04-21T14:44:45.090Z,6.43
2019-04-21T14:47:23.034Z,8.60
2019-04-21T14:50:24.430Z,8.00
2019-04-21T14:53:13.748Z,7.50
2019-04-21T14:55:45.865Z,7.53
2019-04-21T14:58:17.184Z,7.23
2019-04-21T15:00:52.946Z,6.80
2019-04-21T15:03:23.598Z,8.50
2019-04-21T15:05:55.501Z,8.37
2019-04-21T15:08:27.045Z,11.83
2019-04-21T15:10:58.821Z,13.73
2019-04-21T15:13:30.022Z,8.07
2019-04-21T15:16:00.806Z,7.43
2019-04-21T15:18:32.636Z,7.97
2019-04-21T15:21:03.739Z,7.53
2019-04-21T15:23:34.203Z,7.23
2019-04-21T15:26:05.992Z,7.00
2019-04-21T15:28:37.847Z,7.93
2019-04-21T15:31:12.697Z,7.97
2019-04-21T15:33:41.258Z,8.13
2019-04-21T15:36:12.969Z,7.60
2019-04-21T15:38:43.787Z,6.80
2019-04-21T15:41:14.491Z,7.13
2019-04-21T15:43:45.134Z,7.83
2019-04-21T15:46:15.578Z,7.83
2019-04-21T15:48:46.738Z,7.77
2019-04-21T15:51:17.855Z,6.70
2019-04-21T15:53:49.926Z,8.10
2019-04-21T15:56:24.986Z,7.33
2019-04-21T15:59:01.093Z,6.70
2019-04-21T16:01:39.017Z,7.93
2019-04-21T16:04:10.743Z,7.10
2019-04-21T16:06:41.620Z,6.23
2019-04-21T16:09:16.140Z,7.40
2019-04-21T16:11:44.135Z,8.20
2019-04-21T16:14:14.597Z,7.33
2019-04-21T16:16:45.384Z,6.80
2019-04-21T16:19:16.438Z,8.07
2019-04-21T16:21:48.583Z,7.30
2019-04-21T16:24:19.020Z,7.53
2019-04-21T16:26:50.693Z,8.37
2019-04-21T16:29:21.129Z,7.97
2019-04-21T16:31:53.159Z,7.17
2019-04-21T16:34:36.089Z,7.13
2019-04-21T16:36:55.962Z,7.33
2019-04-21T16:39:27.355Z,6.17
2019-04-21T16:41:58.321Z,8.57
2019-04-21T16:44:29.394Z,7.10
2019-04-21T16:47:01.215Z,7.07
2019-04-21T16:49:31.844Z,6.53
2019-04-21T16:52:18.319Z,6.97
2019-04-21T16:54:53.828Z,6.70
2019-04-21T16:57:31.855Z,6.20
2019-04-21T17:00:06.570Z,9.23
2019-04-21T17:02:37.057Z,6.80
2019-04-21T17:05:08.087Z,6.67
2019-04-21T17:07:38.794Z,8.23
2019-04-21T17:10:10.611Z,6.47
2019-04-21T17:12:41.699Z,7.77
2019-04-21T17:15:30.487Z,6.47
2019-04-21T17:18:05.632Z,6.50
2019-04-21T17:20:30.989Z,7.83
2019-04-21T17:22:49.496Z,8.27
2019-04-21T17:25:24.085Z,8.17
2019-04-21T17:27:53.258Z,5.83
2019-04-21T17:30:24.467Z,6.43
2019-04-21T17:32:55.465Z,7.13
2019-04-21T17:35:27.010Z,9.30
2019-04-21T17:37:58.337Z,9.53
2019-04-21T17:40:29.597Z,13.83
2019-04-21T17:43:05.510Z,14.47
2019-04-21T17:45:33.005Z,10.57
2019-04-21T17:48:08.622Z,10.83
2019-04-21T17:50:49.559Z,8.60
2019-04-21T17:53:30.401Z,7.33
2019-04-21T17:56:19.507Z,9.27
2019-04-21T17:58:49.650Z,6.80
2019-04-21T18:01:40.856Z,8.63
2019-04-21T18:04:00.055Z,8.80
2019-04-21T18:06:26.185Z,9.50
2019-04-21T18:09:04.310Z,13.13
2019-04-21T18:11:28.958Z,13.60
2019-04-21T18:13:44.545Z,10.83
2019-04-21T18:16:26.708Z,9.10
2019-04-21T18:18:48.670Z,12.40
2019-04-21T18:21:32.460Z,12.23
2019-04-21T18:24:10.765Z,13.40
2019-04-21T18:26:46.777Z,10.80
2019-04-21T18:29:09.567Z,16.60
2019-04-21T18:31:45.596Z,20.03
2019-04-21T18:34:32.372Z,15.10
2019-04-21T18:37:12.906Z,14.87
2019-04-21T18:39:55.802Z,15.73
2019-04-21T18:42:47.738Z,13.40
2019-04-21T18:48:36.197Z,11.20
2019-04-21T18:51:21.930Z,10.47
2019-04-21T18:54:15.743Z,9.40
2019-04-21T18:56:25.380Z,16.03
2019-04-21T18:58:56.528Z,14.73
2019-04-21T19:01:30.925Z,22.07
2019-04-21T19:04:00.314Z,25.50
2019-04-21T19:06:45.487Z,22.57
2019-04-21T19:09:21.549Z,19.97
2019-04-21T19:11:56.279Z,14.70
2019-04-21T19:14:33.387Z,16.20
2019-04-21T19:17:15.947Z,16.37
2019-04-21T19:22:21.685Z,13.13
2019-04-21T19:24:46.589Z,13.23
2019-04-21T19:29:52.155Z,15.93
2019-04-21T19:32:22.799Z,19.97
2019-04-21T19:34:34.769Z,16.90
2019-04-21T19:37:10.935Z,16.00
2019-04-21T19:39:49.059Z,15.73
2019-04-21T19:42:18.548Z,19.97
2019-04-21T19:44:56.544Z,36.27
2019-04-21T19:47:37.176Z,22.87
2019-04-21T19:50:01.904Z,19.43
2019-04-21T19:52:26.643Z,11.60
2019-04-21T19:54:50.105Z,9.37
2019-04-21T19:57:18.875Z,8.83
2019-04-21T19:59:53.845Z,10.67
2019-04-21T20:02:22.365Z,9.70
2019-04-21T20:05:01.507Z,9.97
2019-04-21T20:07:39.908Z,12.33
2019-04-21T20:10:21.290Z,11.03
2019-04-21T20:12:45.191Z,9.30
2019-04-21T20:15:28.531Z,10.87
2019-04-21T20:17:48.371Z,10.30
2019-04-21T20:20:06.840Z,11.80
2019-04-21T20:22:42.268Z,12.10
2019-04-21T20:25:14.297Z,13.63
2019-04-21T20:27:52.910Z,14.93
2019-04-21T20:30:33.041Z,13.97
2019-04-21T20:33:14.211Z,13.07
2019-04-21T20:35:44.852Z,12.63
2019-04-21T20:38:01.788Z,12.57
2019-04-21T20:40:30.852Z,11.67
2019-04-21T20:43:22.451Z,13.13
2019-04-21T20:45:48.909Z,13.13
2019-04-21T20:48:07.238Z,12.70
2019-04-21T20:50:41.782Z,13.57
2019-04-21T20:53:19.751Z,16.80
2019-04-21T20:55:48.985Z,17.13
2019-04-21T20:58:24.102Z,15.77
2019-04-21T21:01:21.948Z,15.80
2019-04-21T21:05:53.258Z,16.33
2019-04-21T21:08:35.736Z,14.80
2019-04-21T21:11:00.893Z,15.63
2019-04-21T21:13:52.031Z,13.80
2019-04-21T21:16:13.786Z,12.50
2019-04-21T21:21:11.148Z,12.10
2019-04-21T21:23:49.298Z,11.30
2019-04-21T21:26:21.860Z,12.40
2019-04-21T21:28:42.908Z,12.23
2019-04-21T21:31:26.578Z,12.77
2019-04-21T21:36:27.472Z,11.47
2019-04-21T21:39:03.159Z,12.87
2019-04-21T21:41:22.081Z,12.47
2019-04-21T21:43:51.491Z,13.63
2019-04-21T21:46:37.229Z,12.07
2019-04-21T21:49:02.023Z,11.63
2019-04-21T21:51:38.426Z,11.57
2019-04-21T21:53:54.740Z,11.50
2019-04-21T21:56:25.179Z,10.90
2019-04-21T21:58:56.992Z,10.67
2019-04-21T22:01:35.788Z,12.33
2019-04-21T22:04:09.232Z,10.20
2019-04-21T22:06:43.092Z,10.17
2019-04-21T22:09:06.217Z,9.77
2019-04-21T22:11:38.053Z,9.43
2019-04-21T22:14:12.169Z,11.00
2019-04-21T22:16:57.759Z,9.23
2019-04-21T22:19:36.783Z,11.00
2019-04-21T22:22:04.178Z,9.40
2019-04-21T22:24:35.143Z,10.20
2019-04-21T22:26:52.664Z,9.37
2019-04-21T22:29:23.538Z,9.43
2019-04-21T22:32:01.420Z,9.13
2019-04-21T22:34:30.296Z,10.23
2019-04-21T22:37:14.346Z,9.17
2019-04-21T22:39:49.701Z,10.13
2019-04-21T22:42:14.799Z,10.80
2019-04-21T22:44:34.418Z,10.07
2019-04-21T22:47:14.094Z,9.07
2019-04-21T22:49:37.248Z,10.27
2019-04-21T22:52:11.332Z,10.63
2019-04-21T22:54:42.863Z,8.27
2019-04-21T22:57:16.659Z,9.60
2019-04-21T22:59:46.338Z,9.53
2019-04-21T23:02:22.625Z,9.50
2019-04-21T23:04:53.035Z,9.10
2019-04-21T23:07:22.477Z,8.70
2019-04-21T23:09:51.807Z,9.67
2019-04-21T23:12:28.161Z,10.50
2019-04-21T23:15:03.412Z,8.80
2019-04-21T23:17:49.382Z,10.13
2019-04-21T23:20:17.911Z,9.77
2019-04-21T23:22:58.487Z,10.20
2019-04-21T23:25:23.295Z,8.47
2019-04-21T23:27:59.115Z,11.93
2019-04-21T23:30:34.005Z,9.83
2019-04-21T23:32:50.507Z,9.33
2019-04-21T23:35:25.782Z,9.47
2019-04-21T23:37:55.619Z,8.00
2019-04-21T23:40:21.808Z,10.27
2019-04-21T23:42:51.233Z,9.30
2019-04-21T23:45:25.268Z,8.63
2019-04-21T23:48:10.765Z,10.00
2019-04-21T23:50:37.643Z,9.70
2019-04-21T23:52:57.731Z,9.13
2019-04-21T23:55:29.310Z,10.43
2019-04-21T23:58:07.116Z,10.17
